Time;durP1;ratioP1;P1;durP2;ratioP2;P2;SDS_P1;SDS_P2;PMS_P1;PMS_P2;Temp;Humidity;BMP_temperature;BMP_pressure;BME280_temperature;BME280_humidity;BME280_pressure;Samples;Min_cycle;Max_cycle;Signal;HPM_P1;HPM_P2
2023/05/08 00:00:57;;;;;;;;;;;;;;;20.21;46.56;102150.25;5000850;28;4049;-68
2023/05/08 00:03:25;;;;;;;;;;;;;;;20.24;46.44;102146.88;5007099;28;4079;-68
2023/05/08 00:05:54;;;;;;;;;;;;;;;20.18;46.71;102142.84;5009447;28;4254;-68
2023/05/08 00:08:20;;;;;;;;;;;;;;;20.22;46.55;102146.00;5004589;28;4091;-68
2023/05/08 00:10:46;;;;;;;;;;;;;;;20.17;46.59;102158.59;5010089;28;4197;-68
2023/05/08 00:13:13;;;;;;;;;;;;;;;20.19;46.59;102150.84;5002396;28;4083;-68
2023/05/08 00:15:39;;;;;;;;;;;;;;;20.14;46.78;102154.09;5001314;28;4863;-68
2023/05/08 00:18:06;;;;;;;;;;;;;;;20.12;46.66;102163.31;5006709;28;4095;-68
2023/05/08 00:20:33;;;;;;;;;;;;;;;20.11;46.64;102158.16;5009485;28;4476;-68
2023/05/08 00:22:59;;;;;;;;;;;;;;;20.09;46.93;102159.56;5009500;28;4087;-68
2023/05/08 00:25:26;;;;;;;;;;;;;;;20.09;46.76;102159.56;5004995;28;4125;-68
2023/05/08 00:27:52;;;;;;;;;;;;;;;20.08;46.97;102158.03;5004658;28;4140;-72
2023/05/08 00:30:19;;;;;;;;;;;;;;;20.08;46.96;102158.03;5006290;28;4417;-73
2023/05/08 00:32:45;;;;;;;;;;;;;;;20.12;46.91;102156.81;5006982;28;4065;-74
2023/05/08 00:35:12;;;;;;;;;;;;;;;20.18;46.61;102158.00;5005773;28;5224;-74
2023/05/08 00:37:40;;;;;;;;;;;;;;;20.12;46.69;102163.31;5004358;28;4462;-74
2023/05/08 00:40:07;;;;;;;;;;;;;;;20.07;46.81;102168.03;4979712;28;4243;-75
2023/05/08 00:42:33;;;;;;;;;;;;;;;20.05;46.76;102170.03;4992700;28;4103;-75
2023/05/08 00:45:00;;;;;;;;;;;;;;;20.06;46.89;102165.78;5002318;28;4525;-75
2023/05/08 00:47:27;;;;;;;;;;;;;;;20.08;46.77;102169.53;4994408;28;4196;-75
2023/05/08 00:49:53;;;;;;;;;;;;;;;20.06;46.91;102172.28;5004801;28;4101;-75
2023/05/08 00:52:20;;;;;;;;;;;;;;;20.14;46.81;102168.47;5005431;28;4434;-75
2023/05/08 00:54:46;;;;;;;;;;;;;;;20.13;46.84;102175.56;4987103;28;4172;-75
2023/05/08 00:57:13;;;;;;;;;;;;;;;20.22;46.46;102177.63;5008446;28;3929;-75
2023/05/08 00:59:40;;;;;;;;;;;;;;;20.21;46.54;102174.00;5010407;28;4324;-74
2023/05/08 01:02:06;;;;;;;;;;;;;;;20.09;46.88;102176.81;5001216;28;4271;-75
2023/05/08 01:04:33;;;;;;;;;;;;;;;20.12;46.80;102179.81;5001882;28;4132;-74
2023/05/08 01:07:02;;;;;;;;;;;;;;;20.14;46.65;102177.09;5004416;28;4095;-75
2023/05/08 01:09:29;;;;;;;;;;;;;;;20.11;46.81;102176.19;4993714;28;4379;-74
2023/05/08 01:12:15;;;;;;;;;;;;;;;20.07;46.80;102173.78;5009622;28;4185;-74
2023/05/08 01:14:54;;;;;;;;;;;;;;;20.10;46.93;102177.56;5010748;28;4392;-74
2023/05/08 01:17:26;;;;;;;;;;;;;;;20.02;46.91;102174.09;5012475;28;4026;-74
2023/05/08 01:20:03;;;;;;;;;;;;;;;20.10;46.73;102177.56;5003063;28;4722;-74
2023/05/08 01:22:59;;;;;;;;;;;;;;;20.04;46.75;102175.03;5012548;28;4836;-74
2023/05/08 01:25:44;;;;;;;;;;;;;;;20.05;46.93;102167.16;4995828;28;4628;-74
2023/05/08 01:28:28;;;;;;;;;;;;;;;19.98;47.00;102168.84;4995651;28;4112;-74
2023/05/08 01:30:58;;;;;;;;;;;;;;;19.96;47.16;102180.22;4983789;28;4259;-74
2023/05/08 01:33:33;;;;;;;;;;;;;;;19.96;46.91;102168.72;4987812;28;4383;-74
2023/05/08 01:36:03;;;;;;;;;;;;;;;19.95;46.95;102180.81;5000925;28;4717;-74
2023/05/08 01:38:31;;;;;;;;;;;;;;;19.93;47.11;102180.66;5004424;28;4138;-74
2023/05/08 01:41:07;;;;;;;;;;;;;;;20.12;46.68;102174.06;5004771;28;4293;-74
2023/05/08 01:43:47;;;;;;;;;;;;;;;20.12;46.90;102179.81;5003953;28;4058;-74
2023/05/08 01:46:17;;;;;;;;;;;;;;;20.07;46.63;102178.78;4986111;28;4532;-74
2023/05/08 01:48:44;;;;;;;;;;;;;;;20.06;46.83;102172.28;4989449;28;4501;-74
2023/05/08 01:51:11;;;;;;;;;;;;;;;20.02;46.83;102183.50;5005311;28;3946;-74
2023/05/08 01:53:39;;;;;;;;;;;;;;;20.08;46.79;102172.41;5006387;28;4206;-74
2023/05/08 01:56:10;;;;;;;;;;;;;;;20.19;46.57;102178.88;4968698;28;4171;-74
2023/05/08 01:58:37;;;;;;;;;;;;;;;20.19;46.38;102176.00;4999896;28;4138;-74
2023/05/08 02:01:03;;;;;;;;;;;;;;;20.19;46.38;102179.63;5006657;28;4141;-74
2023/05/08 02:03:30;;;;;;;;;;;;;;;20.11;46.59;102172.56;5001869;28;4097;-74
2023/05/08 02:05:57;;;;;;;;;;;;;;;20.06;46.70;102172.28;4998961;28;4362;-74
2023/05/08 02:08:24;;;;;;;;;;;;;;;20.23;46.33;102179.91;5002356;28;4465;-74
2023/05/08 02:10:50;;;;;;;;;;;;;;;20.08;46.69;102178.16;5003072;28;4744;-73
2023/05/08 02:13:18;;;;;;;;;;;;;;;20.13;46.52;102179.19;4995992;28;5062;-74
2023/05/08 02:15:46;;;;;;;;;;;;;;;20.15;46.50;102172.84;5003836;28;4376;-74
2023/05/08 02:18:12;;;;;;;;;;;;;;;20.02;46.89;102180.63;4989276;28;4018;-75
2023/05/08 02:20:39;;;;;;;;;;;;;;;20.04;46.88;102182.88;5003714;28;4062;-75
2023/05/08 02:23:05;;;;;;;;;;;;;;;20.09;46.55;102176.81;5003697;28;4224;-75
2023/05/08 02:25:32;;;;;;;;;;;;;;;20.09;46.56;102179.69;5002159;28;4142;-74
2023/05/08 02:27:58;;;;;;;;;;;;;;;19.99;46.81;102184.72;4997826;28;4222;-74
2023/05/08 02:30:25;;;;;;;;;;;;;;;20.01;46.69;102181.25;5000454;28;4776;-75
2023/05/08 02:32:51;;;;;;;;;;;;;;;19.99;46.92;102184.72;4993149;28;4263;-74
2023/05/08 02:35:19;;;;;;;;;;;;;;;20.02;46.74;102183.50;5008893;28;4438;-74
2023/05/08 02:37:47;;;;;;;;;;;;;;;20.00;46.78;102186.25;4993569;28;3993;-75
2023/05/08 02:40:14;;;;;;;;;;;;;;;20.02;46.87;102183.50;5000738;28;4042;-75
2023/05/08 02:42:41;;;;;;;;;;;;;;;20.04;46.87;102175.03;5012451;28;4452;-75
2023/05/08 02:45:08;;;;;;;;;;;;;;;20.06;46.66;102188.78;5003702;28;4183;-74
2023/05/08 02:47:54;;;;;;;;;;;;;;;20.01;46.81;102181.25;4994233;28;4073;-74
2023/05/08 02:50:35;;;;;;;;;;;;;;;19.94;46.97;102177.19;5003179;28;4180;-74
2023/05/08 02:53:04;;;;;;;;;;;;;;;19.99;46.76;102172.47;4982051;28;4226;-74
2023/05/08 02:55:33;;;;;;;;;;;;;;;20.00;46.79;102174.75;4985850;28;4140;-75
2023/05/08 02:58:04;;;;;;;;;;;;;;;20.00;46.70;102180.50;4996888;28;3950;-75
2023/05/08 03:00:31;;;;;;;;;;;;;;;19.98;46.93;102176.72;4988505;28;4100;-75
2023/05/08 03:03:06;;;;;;;;;;;;;;;20.02;46.59;102172.00;5016672;28;4503;-74
2023/05/08 03:05:37;;;;;;;;;;;;;;;19.98;46.76;102171.72;5002239;28;4680;-75
2023/05/08 03:08:05;;;;;;;;;;;;;;;20.00;46.76;102182.63;5013976;28;4180;-75
2023/05/08 03:10:32;;;;;;;;;;;;;;;19.91;46.91;102178.44;5006476;28;4343;-75
2023/05/08 03:12:58;;;;;;;;;;;;;;;19.92;47.00;102179.91;5003328;28;4376;-74
2023/05/08 03:15:26;;;;;;;;;;;;;;;19.99;46.69;102184.72;4984046;28;4124;-74
2023/05/08 03:17:53;;;;;;;;;;;;;;;19.93;46.94;102190.06;5022508;28;4120;-76
2023/05/08 03:20:20;;;;;;;;;;;;;;;19.96;46.90;102188.84;4999105;28;4058;-76
2023/05/08 03:22:47;;;;;;;;;;;;;;;20.00;46.54;102186.25;5005887;28;4158;-76
2023/05/08 03:25:14;;;;;;;;;;;;;;;20.01;46.79;102187.75;4988981;28;4280;-76
2023/05/08 03:27:42;;;;;;;;;;;;;;;19.99;46.77;102184.72;4999404;28;4139;-75
2023/05/08 03:30:09;;;;;;;;;;;;;;;19.98;46.75;102194.72;4998767;28;3942;-76
2023/05/08 03:32:38;;;;;;;;;;;;;;;20.03;46.55;102190.75;5020404;28;4102;-76
2023/05/08 03:35:05;;;;;;;;;;;;;;;19.95;46.76;102201.72;4996491;28;4301;-75
2023/05/08 03:37:31;;;;;;;;;;;;;;;19.84;46.94;102185.13;4990829;28;4944;-76
2023/05/08 03:39:58;;;;;;;;;;;;;;;19.87;46.98;102190.38;4996824;28;5024;-76
2023/05/08 03:42:25;;;;;;;;;;;;;;;19.95;46.79;102193.09;4997085;28;4402;-75
2023/05/08 03:44:51;;;;;;;;;;;;;;;19.87;46.87;102189.63;5001246;28;4003;-75
2023/05/08 03:47:17;;;;;;;;;;;;;;;19.91;46.80;102197.81;4990462;28;4079;-76
2023/05/08 03:49:44;;;;;;;;;;;;;;;19.97;46.68;102196.09;5018496;28;4456;-75
2023/05/08 03:52:12;;;;;;;;;;;;;;;19.94;46.84;102188.69;5007231;28;4713;-75
2023/05/08 03:54:38;;;;;;;;;;;;;;;19.93;46.69;102190.06;4990392;28;4051;-76
2023/05/08 03:57:05;;;;;;;;;;;;;;;19.88;46.86;102194.00;5003667;28;4046;-75
2023/05/08 03:59:35;;;;;;;;;;;;;;;19.89;46.88;102186.91;4997553;28;4385;-76
2023/05/08 04:02:09;;;;;;;;;;;;;;;19.87;46.83;102190.38;5006002;28;4118;-76
2023/05/08 04:04:38;;;;;;;;;;;;;;;19.91;46.81;102183.44;5005583;28;4469;-76
2023/05/08 04:07:09;;;;;;;;;;;;;;;20.01;46.61;102189.88;5004085;28;4137;-76
2023/05/08 04:09:48;;;;;;;;;;;;;;;19.93;46.72;102190.06;5012684;28;3974;-76
2023/05/08 04:12:17;;;;;;;;;;;;;;;19.87;46.86;102187.50;5004611;28;4003;-76
2023/05/08 04:14:51;;;;;;;;;;;;;;;19.85;46.93;102198.13;5014152;28;4082;-76
2023/05/08 04:17:22;;;;;;;;;;;;;;;19.81;46.84;102180.59;4981861;28;4160;-76
2023/05/08 04:19:51;;;;;;;;;;;;;;;19.84;47.03;102193.75;4988324;28;4372;-76
2023/05/08 04:22:17;;;;;;;;;;;;;;;19.83;47.00;102183.59;4989470;28;4324;-76
2023/05/08 04:24:44;;;;;;;;;;;;;;;19.86;46.83;102196.78;5009201;28;4682;-76
2023/05/08 04:27:10;;;;;;;;;;;;;;;19.87;46.92;102198.25;4991314;28;4532;-76
2023/05/08 04:29:37;;;;;;;;;;;;;;;19.86;46.83;102193.91;5006659;28;4441;-76
2023/05/08 04:32:04;;;;;;;;;;;;;;;19.86;46.81;102199.66;5005225;28;3926;-76
2023/05/08 04:34:31;;;;;;;;;;;;;;;19.84;46.95;102196.63;5012212;28;4416;-76
2023/05/08 04:36:58;;;;;;;;;;;;;;;19.79;47.00;102200.56;5009863;28;4523;-75
2023/05/08 04:39:24;;;;;;;;;;;;;;;19.73;47.15;102206.66;5006716;28;4316;-76
2023/05/08 04:41:53;;;;;;;;;;;;;;;19.78;46.95;102194.06;5004858;28;4168;-76
2023/05/08 04:44:21;;;;;;;;;;;;;;;19.77;47.04;102203.28;5017005;28;4239;-75
2023/05/08 04:46:48;;;;;;;;;;;;;;;19.79;46.92;102206.31;5015302;28;4484;-76
2023/05/08 04:49:15;;;;;;;;;;;;;;;19.81;47.08;102212.19;4999195;28;4027;-76
2023/05/08 04:51:42;;;;;;;;;;;;;;;19.73;47.14;102220.28;5008656;28;4378;-76
2023/05/08 04:54:08;;;;;;;;;;;;;;;19.70;47.18;102219.38;5008226;28;4213;-76
2023/05/08 04:56:35;;;;;;;;;;;;;;;19.72;47.21;102224.50;4990341;28;5032;-76
2023/05/08 04:59:01;;;;;;;;;;;;;;;19.68;47.35;102222.06;4977193;28;4536;-75
2023/05/08 05:01:28;;;;;;;;;;;;;;;19.69;47.32;102232.22;5002435;28;4416;-74
2023/05/08 05:03:54;;;;;;;;;;;;;;;19.73;47.21;102238.25;5012413;28;4148;-75
2023/05/08 05:06:21;;;;;;;;;;;;;;;19.69;47.30;102237.22;4999935;28;4224;-74
2023/05/08 05:08:47;;;;;;;;;;;;;;;19.67;47.33;102243.53;4994244;28;4326;-75
2023/05/08 05:11:14;;;;;;;;;;;;;;;19.66;47.31;102234.16;4995632;28;4003;-74
2023/05/08 05:13:41;;;;;;;;;;;;;;;19.73;47.26;102243.25;5003875;28;4107;-74
2023/05/08 05:16:07;;;;;;;;;;;;;;;19.75;47.17;102232.66;4996213;28;4086;-75
2023/05/08 05:18:34;;;;;;;;;;;;;;;19.71;47.10;102223.00;5006056;28;4361;-74
2023/05/08 05:21:00;;;;;;;;;;;;;;;19.76;47.47;102237.03;5001582;28;4063;-82
2023/05/08 05:23:28;;;;;;;;;;;;;;;19.44;46.21;102229.69;5005904;28;4482;-77
2023/05/08 05:25:54;;;;;;;;;;;;;;;19.42;45.79;102243.91;5005253;28;4039;-77
2023/05/08 05:28:21;;;;;;;;;;;;;;;19.52;46.25;102246.78;5003675;28;4072;-78
2023/05/08 05:30:47;;;;;;;;;;;;;;;19.56;46.40;102247.81;5012983;28;4165;-74
2023/05/08 05:33:14;;;;;;;;;;;;;;;19.67;46.52;102252.91;5002126;28;4110;-74
2023/05/08 05:35:40;;;;;;;;;;;;;;;19.68;46.83;102253.69;5005070;28;4153;-74
2023/05/08 05:38:07;;;;;;;;;;;;;;;19.79;47.24;102253.06;5005424;28;4248;-74
2023/05/08 05:40:34;;;;;;;;;;;;;;;19.77;47.43;102255.03;5000364;28;4152;-74
2023/05/08 05:43:01;;;;;;;;;;;;;;;19.76;47.33;102250.66;5005814;28;4094;-72
2023/05/08 05:45:27;;;;;;;;;;;;;;;19.73;47.39;102261.25;5007442;28;4080;-72
2023/05/08 05:47:56;;;;;;;;;;;;;;;19.74;47.52;102262.00;4997327;28;4097;-72
2023/05/08 05:50:26;;;;;;;;;;;;;;;19.74;47.44;102245.50;5004704;28;4138;-72
2023/05/08 05:52:53;;;;;;;;;;;;;;;19.75;47.66;102246.28;5009072;28;3972;-72
2023/05/08 05:55:20;;;;;;;;;;;;;;;19.75;47.67;102257.78;5007606;28;4248;-72
2023/05/08 05:57:47;;;;;;;;;;;;;;;19.77;47.80;102257.91;5008250;28;4064;-73
2023/05/08 06:00:15;;;;;;;;;;;;;;;19.76;47.83;102254.28;5013962;28;4209;-73
2023/05/08 06:02:44;;;;;;;;;;;;;;;19.79;47.75;102263.78;4998202;28;4119;-72
2023/05/08 06:05:14;;;;;;;;;;;;;;;19.80;47.90;102265.31;5020506;28;4216;-72
2023/05/08 06:07:40;;;;;;;;;;;;;;;19.80;47.83;102256.69;5002653;28;4110;-73
2023/05/08 06:10:07;;;;;;;;;;;;;;;19.81;47.92;102261.06;5005428;28;4102;-72
2023/05/08 06:12:33;;;;;;;;;;;;;;;19.79;48.27;102266.66;4993672;28;4319;-80
2023/05/08 06:14:59;;;;;;;;;;;;;;;20.20;49.20;102260.91;5005178;28;4511;-71
2023/05/08 06:17:26;;;;;;;;;;;;;;;20.34;49.40;102259.03;5012324;28;4081;-71
2023/05/08 06:19:54;;;;;;;;;;;;;;;20.46;49.13;102264.84;4999845;28;3987;-71
2023/05/08 06:22:22;;;;;;;;;;;;;;;20.43;48.45;102260.31;5017518;28;4752;-70
2023/05/08 06:24:54;;;;;;;;;;;;;;;20.50;48.51;102268.75;5034759;28;4052;-69
2023/05/08 06:27:21;;;;;;;;;;;;;;;20.55;48.07;102261.16;5000600;28;4186;-70
2023/05/08 06:29:50;;;;;;;;;;;;;;;20.57;48.10;102272.06;5013434;28;3935;-68
2023/05/08 06:32:17;;;;;;;;;;;;;;;20.53;48.10;102281.16;5018728;28;3950;-67
2023/05/08 06:34:43;;;;;;;;;;;;;;;20.55;48.73;102264.03;5007662;28;4116;-71
2023/05/08 06:37:09;;;;;;;;;;;;;;;20.61;48.08;102267.34;5020359;28;3909;-69
2023/05/08 06:39:36;;;;;;;;;;;;;;;20.71;47.89;102273.03;5015341;28;4171;-74
2023/05/08 06:42:05;;;;;;;;;;;;;;;20.64;48.28;102266.13;5018330;28;4112;-74
2023/05/08 06:44:36;;;;;;;;;;;;;;;20.63;48.12;102270.34;5015419;28;4538;-72
2023/05/08 06:47:03;;;;;;;;;;;;;;;20.65;47.94;102275.50;5021767;28;4309;-72
2023/05/08 06:49:29;;;;;;;;;;;;;;;20.59;48.61;102266.44;5015025;28;4448;-72
2023/05/08 06:51:55;;;;;;;;;;;;;;;20.58;47.78;102267.84;5016304;28;5002;-74
2023/05/08 06:54:23;;;;;;;;;;;;;;;20.58;47.94;102264.94;5020257;28;4495;-65
2023/05/08 06:56:51;;;;;;;;;;;;;;;20.55;47.92;102277.66;5009310;28;4624;-69
2023/05/08 06:59:17;;;;;;;;;;;;;;;20.60;48.03;102276.59;5010991;28;4540;-66
2023/05/08 07:01:43;;;;;;;;;;;;;;;20.70;47.89;102278.03;5008448;28;4033;-65
2023/05/08 07:04:10;;;;;;;;;;;;;;;20.71;47.90;102273.03;5014736;28;4113;-65
2023/05/08 07:06:36;;;;;;;;;;;;;;;20.77;47.75;102270.56;5011264;28;4275;-67
2023/05/08 07:09:03;;;;;;;;;;;;;;;20.84;47.48;102274.59;5012164;28;4190;-66
2023/05/08 07:11:29;;;;;;;;;;;;;;;20.89;47.30;102273.50;5012763;28;4165;-66
2023/05/08 07:13:55;;;;;;;;;;;;;;;20.90;47.10;102264.25;5012419;28;4483;-67
2023/05/08 07:16:22;;;;;;;;;;;;;;;20.89;47.10;102274.28;5009084;28;4239;-68
2023/05/08 07:18:48;;;;;;;;;;;;;;;20.95;46.80;102284.69;5013172;28;4312;-67
2023/05/08 07:21:16;;;;;;;;;;;;;;;20.81;47.54;102267.97;5010338;28;4138;-66
2023/05/08 07:23:43;;;;;;;;;;;;;;;20.89;47.41;102262.75;5009479;28;4131;-67
2023/05/08 07:26:10;;;;;;;;;;;;;;;20.93;47.34;102271.63;5016047;28;4174;-67
2023/05/08 07:28:36;;;;;;;;;;;;;;;20.91;47.43;102273.63;5016851;28;4302;-68
2023/05/08 07:31:03;;;;;;;;;;;;;;;20.92;47.35;102267.25;5014324;28;4103;-66
2023/05/08 07:33:29;;;;;;;;;;;;;;;20.92;47.00;102275.91;5014309;28;4082;-67
2023/05/08 07:35:56;;;;;;;;;;;;;;;20.74;47.35;102271.06;5012202;28;4200;-67
2023/05/08 07:38:22;;;;;;;;;;;;;;;20.74;46.42;102271.06;5008905;28;4459;-65
2023/05/08 07:40:50;;;;;;;;;;;;;;;20.79;44.38;102255.56;5009175;28;4193;-67
2023/05/08 07:43:16;;;;;;;;;;;;;;;20.68;42.97;102280.78;5011476;28;3996;-67
2023/05/08 07:45:43;;;;;;;;;;;;;;;20.65;41.71;102269.75;5009321;28;5135;-67
2023/05/08 07:48:10;;;;;;;;;;;;;;;20.65;41.42;102258.22;5015003;28;4343;-68
2023/05/08 07:50:37;;;;;;;;;;;;;;;20.63;40.77;102275.38;5009810;28;4403;-67
2023/05/08 07:53:03;;;;;;;;;;;;;;;20.61;39.69;102275.97;5011024;28;4241;-67
2023/05/08 07:55:29;;;;;;;;;;;;;;;20.59;39.08;102269.31;5009929;28;4367;-68
2023/05/08 07:57:56;;;;;;;;;;;;;;;20.50;38.39;102286.03;5006335;28;4171;-65
2023/05/08 08:00:22;;;;;;;;;;;;;;;20.51;38.08;102255.88;5007075;28;4073;-64
2023/05/08 08:02:49;;;;;;;;;;;;;;;20.62;38.29;102259.47;5008142;28;3984;-65
2023/05/08 08:05:15;;;;;;;;;;;;;;;20.57;38.50;102269.19;5010742;28;4107;-65
2023/05/08 08:07:42;;;;;;;;;;;;;;;20.63;38.38;102273.22;5007100;28;4141;-65
2023/05/08 08:10:08;;;;;;;;;;;;;;;20.67;38.14;102259.13;5013113;28;4350;-67
2023/05/08 08:12:35;;;;;;;;;;;;;;;20.46;38.76;102277.13;5006173;28;4304;-68
2023/05/08 08:15:01;;;;;;;;;;;;;;;20.38;39.99;102262.16;5010584;28;4578;-65
2023/05/08 08:17:27;;;;;;;;;;;;;;;20.51;40.42;102269.50;5011166;28;4150;-68
2023/05/08 08:19:54;;;;;;;;;;;;;;;20.54;40.76;102271.16;5012395;28;4421;-67
2023/05/08 08:22:21;;;;;;;;;;;;;;;20.59;40.95;102257.81;5008553;28;4070;-69
2023/05/08 08:24:47;;;;;;;;;;;;;;;20.65;41.31;102269.75;5013804;28;4214;-68
2023/05/08 08:27:13;;;;;;;;;;;;;;;20.75;41.51;102261.03;5015910;28;4129;-71
2023/05/08 08:29:40;;;;;;;;;;;;;;;20.71;41.74;102262.28;5013591;28;4389;-68
2023/05/08 08:32:06;;;;;;;;;;;;;;;20.45;42.11;102260.44;5004863;28;3970;-68
2023/05/08 08:34:33;;;;;;;;;;;;;;;20.66;42.23;102253.97;5006101;28;4152;-69
2023/05/08 08:36:59;;;;;;;;;;;;;;;20.64;41.80;102274.75;5008082;28;4341;-69
2023/05/08 08:39:26;;;;;;;;;;;;;;;20.22;39.04;102263.91;5007944;28;4089;-69
2023/05/08 08:41:52;;;;;;;;;;;;;;;19.86;37.25;102249.25;5006526;28;4194;-69
2023/05/08 08:44:18;;;;;;;;;;;;;;;20.01;36.34;102253.88;5005673;28;3991;-69
2023/05/08 08:46:49;;;;;;;;;;;;;;;20.27;37.41;102248.44;5010095;28;4394;-72
2023/05/08 08:49:30;;;;;;;;;;;;;;;20.42;39.01;102255.94;5011850;28;4061;-68
2023/05/08 08:52:05;;;;;;;;;;;;;;;20.50;39.55;102263.00;5013636;28;4052;-69
2023/05/08 08:54:33;;;;;;;;;;;;;;;20.41;40.42;102254.41;5005618;28;4068;-65
2023/05/08 08:57:00;;;;;;;;;;;;;;;20.28;40.82;102249.97;4999517;28;4254;-68
2023/05/08 08:59:26;;;;;;;;;;;;;;;20.25;41.31;102251.19;5004166;28;4214;-72
2023/05/08 09:01:53;;;;;;;;;;;;;;;20.23;42.40;102251.81;5001488;28;4157;-70
2023/05/08 09:04:20;;;;;;;;;;;;;;;20.26;42.29;102259.19;5002953;28;4136;-69
2023/05/08 09:06:46;;;;;;;;;;;;;;;20.26;42.57;102256.31;5000949;28;4490;-70
2023/05/08 09:09:13;;;;;;;;;;;;;;;20.25;42.65;102256.97;5002161;28;4333;-70
2023/05/08 09:11:40;;;;;;;;;;;;;;;20.24;42.98;102246.81;5002113;28;5099;-69
2023/05/08 09:14:07;;;;;;;;;;;;;;;20.26;43.02;102253.44;5002763;28;4261;-69
2023/05/08 09:16:33;;;;;;;;;;;;;;;20.27;43.21;102254.19;5001306;28;4158;-68
2023/05/08 09:19:00;;;;;;;;;;;;;;;20.28;43.00;102249.97;5001295;28;5558;-69
2023/05/08 09:21:29;;;;;;;;;;;;;;;20.26;43.06;102256.31;5004719;28;4152;-69
2023/05/08 09:23:55;;;;;;;;;;;;;;;20.26;43.42;102244.06;5006774;28;4126;-69
2023/05/08 09:26:33;;;;;;;;;;;;;;;20.26;43.20;102241.19;5005402;28;4015;-67
2023/05/08 09:29:26;;;;;;;;;;;;;;;20.26;43.19;102247.69;5002190;28;4200;-68
2023/05/08 09:31:52;;;;;;;;;;;;;;;20.26;43.32;102249.81;5000197;28;4207;-69
2023/05/08 09:34:27;;;;;;;;;;;;;;;20.27;43.38;102251.31;4998580;28;4193;-69
2023/05/08 09:37:08;;;;;;;;;;;;;;;20.27;43.69;102254.19;4992375;28;4526;-72
2023/05/08 09:39:35;;;;;;;;;;;;;;;20.37;44.10;102257.78;4999878;28;4138;-73
2023/05/08 09:42:02;;;;;;;;;;;;;;;20.46;44.29;102236.81;4999638;28;4045;-67
2023/05/08 09:44:41;;;;;;;;;;;;;;;20.49;43.93;102247.09;5003953;28;4137;-67
2023/05/08 09:47:09;;;;;;;;;;;;;;;20.55;44.16;102254.63;5003850;28;4432;-68
2023/05/08 09:49:35;;;;;;;;;;;;;;;20.64;44.80;102250.97;5000721;28;4365;-70
2023/05/08 09:52:01;;;;;;;;;;;;;;;20.66;44.28;102251.88;5007324;28;4160;-69
2023/05/08 09:54:28;;;;;;;;;;;;;;;20.59;44.75;102249.19;4995154;28;4170;-69
2023/05/08 09:56:54;;;;;;;;;;;;;;;20.54;44.55;102250.25;5006087;28;4058;-67
2023/05/08 09:59:21;;;;;;;;;;;;;;;20.53;43.71;102251.63;5009098;28;4047;-68
2023/05/08 10:01:48;;;;;;;;;;;;;;;20.41;42.60;102245.78;5007538;28;4232;-70
2023/05/08 10:04:14;;;;;;;;;;;;;;;20.40;40.60;102239.28;5006456;28;4103;-68
2023/05/08 10:06:41;;;;;;;;;;;;;;;20.47;40.40;102243.31;5008530;28;4348;-71
2023/05/08 10:09:08;;;;;;;;;;;;;;;20.53;40.58;102243.00;5010613;28;4377;-68
2023/05/08 10:11:34;;;;;;;;;;;;;;;20.65;40.50;102230.19;5008580;28;4440;-67
2023/05/08 10:14:00;;;;;;;;;;;;;;;20.75;40.79;102241.63;5013546;28;4199;-67
2023/05/08 10:16:27;;;;;;;;;;;;;;;20.79;41.48;102241.91;5012626;28;4177;-72
2023/05/08 10:18:56;;;;;;;;;;;;;;;20.82;41.91;102246.44;5014458;28;4049;-72
2023/05/08 10:21:22;;;;;;;;;;;;;;;20.83;42.40;102235.69;5019444;28;4126;-68
2023/05/08 10:23:48;;;;;;;;;;;;;;;20.90;42.86;102235.44;5008827;28;4057;-70
2023/05/08 10:26:20;;;;;;;;;;;;;;;20.93;42.78;102233.47;5018862;28;4021;-69
2023/05/08 10:28:50;;;;;;;;;;;;;;;20.93;43.11;102227.69;5011063;28;4506;-72
2023/05/08 10:31:16;;;;;;;;;;;;;;;20.91;43.58;102221.81;5012532;28;4029;-71
2023/05/08 10:33:43;;;;;;;;;;;;;;;20.91;43.43;102227.56;5006528;28;4055;-71
2023/05/08 10:36:12;;;;;;;;;;;;;;;20.90;43.62;102221.06;5010653;28;4280;-71
2023/05/08 10:38:38;;;;;;;;;;;;;;;20.86;43.60;102212.13;5010251;28;4340;-69
2023/05/08 10:41:04;;;;;;;;;;;;;;;20.76;43.05;102217.25;5011446;28;4439;-68
2023/05/08 10:43:31;;;;;;;;;;;;;;;19.90;38.36;102211.41;5010717;28;4578;-69
2023/05/08 10:45:57;;;;;;;;;;;;;;;20.08;39.38;102204.03;5016935;28;4180;-70
2023/05/08 10:48:35;;;;;;;;;;;;;;;20.53;41.18;102202.72;5009869;28;4466;-72
2023/05/08 10:51:07;;;;;;;;;;;;;;;20.79;41.50;102216.00;5013095;28;4211;-74
2023/05/08 10:53:38;;;;;;;;;;;;;;;19.62;37.59;102210.88;5015620;28;4202;-69
2023/05/08 10:56:05;;;;;;;;;;;;;;;20.13;37.86;102210.81;5010223;28;4126;-69
2023/05/08 10:58:31;;;;;;;;;;;;;;;20.53;39.74;102203.47;5010189;28;4195;-71
2023/05/08 11:01:05;;;;;;;;;;;;;;;20.70;40.61;102205.31;5014198;28;4180;-70
2023/05/08 11:03:40;;;;;;;;;;;;;;;20.82;41.45;102190.97;5010902;28;4180;-69
2023/05/08 11:06:06;;;;;;;;;;;;;;;20.84;41.47;102203.38;5006231;28;4165;-70
2023/05/08 11:08:33;;;;;;;;;;;;;;;20.86;41.93;102197.00;5005123;28;5154;-69
2023/05/08 11:11:03;;;;;;;;;;;;;;;20.92;41.98;102195.28;5011578;28;4242;-72
2023/05/08 11:13:34;;;;;;;;;;;;;;;20.99;42.24;102198.56;5010243;28;4203;-69
2023/05/08 11:16:00;;;;;;;;;;;;;;;20.97;42.22;102192.66;5005973;28;4252;-69
2023/05/08 11:18:27;;;;;;;;;;;;;;;20.97;42.38;102186.91;5008961;28;4140;-69
2023/05/08 11:21:13;;;;;;;;;;;;;;;20.89;42.52;102185.00;5009753;28;4094;-72
2023/05/08 11:23:40;;;;;;;;;;;;;;;20.97;42.30;102193.41;4999515;28;4070;-71
2023/05/08 11:26:10;;;;;;;;;;;;;;;21.03;42.52;102184.44;5005339;28;3974;-70
2023/05/08 11:28:37;;;;;;;;;;;;;;;20.97;42.71;102187.66;5006316;28;4290;-70
2023/05/08 11:31:03;;;;;;;;;;;;;;;21.03;42.50;102181.53;5005636;28;4068;-73
2023/05/08 11:33:30;;;;;;;;;;;;;;;21.00;42.88;102174.88;4997890;28;4251;-73
2023/05/08 11:36:10;;;;;;;;;;;;;;;20.86;42.89;102183.34;5009276;28;4143;-71
2023/05/08 11:38:37;;;;;;;;;;;;;;;20.80;42.95;102188.72;5006197;28;4141;-77
2023/05/08 11:41:10;;;;;;;;;;;;;;;20.79;43.25;102175.69;5009511;28;4068;-67
2023/05/08 11:43:49;;;;;;;;;;;;;;;20.90;43.30;102180.75;5004899;28;4439;-76
2023/05/08 11:46:15;;;;;;;;;;;;;;;21.02;43.18;102168.50;5009571;28;4846;-76
2023/05/08 11:48:42;;;;;;;;;;;;;;;21.08;43.44;102172.53;4987455;28;4144;-77
2023/05/08 11:51:08;;;;;;;;;;;;;;;21.03;43.45;102170.03;4988411;28;4109;-74
2023/05/08 11:53:35;;;;;;;;;;;;;;;21.01;43.32;102167.75;4987104;28;4031;-75
2023/05/08 11:56:02;;;;;;;;;;;;;;;21.13;43.37;102159.88;4987730;28;4032;-73
2023/05/08 11:58:28;;;;;;;;;;;;;;;21.12;43.52;102160.53;4988047;28;4506;-73
2023/05/08 12:00:55;;;;;;;;;;;;;;;21.12;43.56;102164.16;4988330;28;4025;-76
2023/05/08 12:03:21;;;;;;;;;;;;;;;21.47;43.27;102154.84;4992700;28;3904;-77
2023/05/08 12:05:48;;;;;;;;;;;;;;;21.56;43.12;102156.09;5008811;28;5193;-73
2023/05/08 12:08:15;;;;;;;;;;;;;;;21.57;42.99;102156.84;5016487;28;4242;-74
2023/05/08 12:10:44;;;;;;;;;;;;;;;21.59;43.12;102151.94;5007922;28;4181;-71
2023/05/08 12:13:16;;;;;;;;;;;;;;;21.57;43.13;102157.59;5011727;28;4128;-73
2023/05/08 12:15:42;;;;;;;;;;;;;;;21.61;43.23;102157.09;5012201;28;4171;-72
2023/05/08 12:18:08;;;;;;;;;;;;;;;21.55;43.33;102151.69;5011310;28;4832;-77
2023/05/08 12:20:35;;;;;;;;;;;;;;;21.77;43.14;102149.44;5010249;28;5207;-86
2023/05/08 12:23:01;;;;;;;;;;;;;;;21.91;43.20;102156.06;5012438;28;4065;-79
2023/05/08 12:25:28;;;;;;;;;;;;;;;21.89;43.04;102158.09;5007528;28;3977;-80
2023/05/08 12:27:54;;;;;;;;;;;;;;;21.87;42.87;102146.41;5010225;28;4117;-84
2023/05/08 12:30:20;;;;;;;;;;;;;;;21.81;43.13;102143.94;5013586;28;4693;-82
2023/05/08 12:32:47;;;;;;;;;;;;;;;21.80;43.04;102150.31;5013361;28;5364;-86
2023/05/08 12:35:14;;;;;;;;;;;;;;;21.77;43.36;102145.81;5019651;28;4346;-76
2023/05/08 12:37:40;;;;;;;;;;;;;;;21.84;43.22;102133.28;5011944;28;4272;-75
2023/05/08 12:40:07;;;;;;;;;;;;;;;21.80;43.30;102127.25;5010633;28;4603;-76
2023/05/08 12:42:43;;;;;;;;;;;;;;;21.87;43.13;102137.75;5010054;28;4507;-77
2023/05/08 12:45:28;;;;;;;;;;;;;;;21.63;43.35;102131.28;5009000;28;4037;-77
2023/05/08 12:47:59;;;;;;;;;;;;;;;21.53;43.51;102122.75;5016125;28;4159;-76
2023/05/08 12:50:25;;;;;;;;;;;;;;;21.58;43.74;102124.53;5008578;28;3981;-85
2023/05/08 12:52:52;;;;;;;;;;;;;;;21.88;43.40;102133.53;5011096;28;4022;-82